createdAt,value
2019-02-24T00:00:42.416Z,19.13
2019-02-24T00:03:10.933Z,21.15
2019-02-24T00:05:39.456Z,18.12
2019-02-24T00:08:08.007Z,15.48
2019-02-24T00:10:36.521Z,21.85
2019-02-24T00:13:05.042Z,23.02
2019-02-24T00:15:33.597Z,19.05
2019-02-24T00:18:02.122Z,19.23
2019-02-24T00:20:30.633Z,22.73
2019-02-24T00:22:59.157Z,12.85
2019-02-24T00:25:27.677Z,15.58
2019-02-24T00:27:56.242Z,16.00
2019-02-24T00:30:24.766Z,15.03
2019-02-24T00:32:53.282Z,17.40
2019-02-24T00:35:21.802Z,19.45
2019-02-24T00:37:50.325Z,17.10
2019-02-24T00:40:18.893Z,11.70
2019-02-24T00:42:47.414Z,22.90
2019-02-24T00:45:15.931Z,32.10
2019-02-24T00:47:44.461Z,30.02
2019-02-24T00:50:12.965Z,18.53
2019-02-24T00:52:41.545Z,17.48
2019-02-24T00:55:10.058Z,20.72
2019-02-24T00:57:38.579Z,16.97
2019-02-24T01:00:10.104Z,17.92
2019-02-24T01:02:38.624Z,21.23
2019-02-24T01:05:08.580Z,20.92
2019-02-24T01:07:37.095Z,20.82
2019-02-24T01:10:08.315Z,13.15
2019-02-24T01:12:36.848Z,17.57
2019-02-24T01:15:08.271Z,16.90
2019-02-24T01:17:36.841Z,17.50
2019-02-24T01:20:07.764Z,17.70
2019-02-24T01:22:36.290Z,20.80
2019-02-24T01:25:04.835Z,22.15
2019-02-24T01:27:33.362Z,20.62
2019-02-24T01:30:02.025Z,28.45
2019-02-24T01:32:30.542Z,23.12
2019-02-24T01:34:59.058Z,26.02
2019-02-24T01:37:27.588Z,35.30
2019-02-24T01:39:56.100Z,31.33
2019-02-24T01:42:24.672Z,26.25
2019-02-24T01:44:53.223Z,33.88
2019-02-24T01:47:21.734Z,33.20
2019-02-24T01:49:50.258Z,27.77
2019-02-24T01:52:18.771Z,24.50
2019-02-24T01:54:47.335Z,23.77
2019-02-24T01:57:15.856Z,25.72
2019-02-24T01:59:44.374Z,23.05
2019-02-24T02:02:12.900Z,25.35
2019-02-24T02:04:41.414Z,25.17
2019-02-24T02:07:09.982Z,20.75
2019-02-24T02:09:38.499Z,22.80
2019-02-24T02:12:07.020Z,26.45
2019-02-24T02:14:35.541Z,23.27
2019-02-24T02:17:04.057Z,26.62
2019-02-24T02:19:32.659Z,21.90
2019-02-24T02:22:01.121Z,25.60
2019-02-24T02:24:29.636Z,26.90
2019-02-24T02:26:58.165Z,27.32
2019-02-24T02:29:26.692Z,22.10
2019-02-24T02:31:55.250Z,26.70
2019-02-24T02:34:23.761Z,25.08
2019-02-24T02:36:52.275Z,21.50
2019-02-24T02:39:20.792Z,22.10
2019-02-24T02:41:49.306Z,21.62
2019-02-24T02:44:17.877Z,27.48
2019-02-24T02:46:46.399Z,22.05
2019-02-24T02:49:14.915Z,23.22
2019-02-24T02:51:43.428Z,21.75
2019-02-24T02:54:11.944Z,23.75
2019-02-24T02:56:40.510Z,20.25
2019-02-24T02:59:09.020Z,20.25
2019-02-24T03:01:37.529Z,22.77
2019-02-24T03:04:06.058Z,19.07
2019-02-24T03:06:45.203Z,19.10
2019-02-24T03:09:13.715Z,20.32
2019-02-24T03:11:42.228Z,22.48
2019-02-24T03:14:10.790Z,19.30
2019-02-24T03:16:39.303Z,17.82
2019-02-24T03:19:07.822Z,20.40
2019-02-24T03:21:36.341Z,20.48
2019-02-24T03:24:04.861Z,20.32
2019-02-24T03:26:33.435Z,18.17
2019-02-24T03:29:04.392Z,22.70
2019-02-24T03:31:32.185Z,34.03
2019-02-24T03:34:00.717Z,36.40
2019-02-24T03:36:29.227Z,25.90
2019-02-24T03:38:57.791Z,24.50
2019-02-24T03:41:26.304Z,27.27
2019-02-24T03:43:54.821Z,28.07
2019-02-24T03:46:23.338Z,20.72
2019-02-24T03:48:51.845Z,18.25
2019-02-24T03:51:20.433Z,26.35
2019-02-24T03:53:48.942Z,24.98
2019-02-24T03:56:17.446Z,22.52
2019-02-24T03:58:45.968Z,21.07
2019-02-24T04:01:14.484Z,31.48
2019-02-24T04:03:43.032Z,28.27
2019-02-24T04:06:11.547Z,42.35
2019-02-24T04:08:40.056Z,34.10
2019-02-24T04:11:08.600Z,27.93
2019-02-24T04:13:37.104Z,28.07
2019-02-24T04:16:05.661Z,27.75
2019-02-24T04:18:34.179Z,37.17
2019-02-24T04:21:02.701Z,47.35
2019-02-24T04:23:31.230Z,48.65
2019-02-24T04:25:59.757Z,42.30
2019-02-24T04:28:28.289Z,29.30
2019-02-24T04:30:56.799Z,21.48
2019-02-24T04:33:25.324Z,23.50
2019-02-24T04:35:53.847Z,26.27
2019-02-24T04:38:22.364Z,25.05
2019-02-24T04:40:50.943Z,34.90
2019-02-24T04:43:19.467Z,29.48
2019-02-24T04:45:48.004Z,24.80
2019-02-24T04:48:16.527Z,26.70
2019-02-24T04:50:45.049Z,33.75
2019-02-24T04:53:13.609Z,34.05
2019-02-24T04:55:42.139Z,30.57
2019-02-24T04:58:10.649Z,28.80
2019-02-24T05:00:39.189Z,28.47
2019-02-24T05:03:07.702Z,31.15
2019-02-24T05:05:36.259Z,30.50
2019-02-24T05:08:04.782Z,31.48
2019-02-24T05:10:33.299Z,38.02
2019-02-24T05:13:01.833Z,30.88
2019-02-24T05:15:30.352Z,33.67
2019-02-24T05:17:58.935Z,45.45
2019-02-24T05:20:27.451Z,43.10
2019-02-24T05:22:55.973Z,45.70
2019-02-24T05:25:24.500Z,46.48
2019-02-24T05:27:53.025Z,46.50
2019-02-24T05:30:21.548Z,43.30
2019-02-24T05:32:50.114Z,50.88
2019-02-24T05:35:18.596Z,62.70
2019-02-24T05:37:47.114Z,49.77
2019-02-24T05:40:15.674Z,48.17
2019-02-24T05:42:44.190Z,39.63
2019-02-24T05:45:12.710Z,32.25
2019-02-24T05:47:41.288Z,38.30
2019-02-24T05:50:09.802Z,41.20
2019-02-24T05:52:38.333Z,719.40
2019-02-24T05:55:07.472Z,205.73
2019-02-24T05:57:35.997Z,135.40
2019-02-24T06:00:05.078Z,106.17
2019-02-24T06:02:33.593Z,80.23
2019-02-24T06:05:02.108Z,79.77
2019-02-24T06:07:30.671Z,127.27
2019-02-24T06:09:59.186Z,119.90
2019-02-24T06:12:27.696Z,56.47
2019-02-24T06:14:56.224Z,96.50
2019-02-24T06:17:24.728Z,73.00
2019-02-24T06:19:53.286Z,89.03
2019-02-24T06:22:21.792Z,68.70
2019-02-24T06:24:50.305Z,79.40
2019-02-24T06:27:18.821Z,56.87
2019-02-24T06:29:47.338Z,53.77
2019-02-24T06:32:15.896Z,43.90
2019-02-24T06:34:44.412Z,38.40
2019-02-24T06:37:12.926Z,29.20
2019-02-24T06:39:41.445Z,36.27
2019-02-24T06:42:09.958Z,56.70
2019-02-24T06:44:38.515Z,45.37
2019-02-24T06:47:07.022Z,72.57
2019-02-24T06:49:35.535Z,48.20
2019-02-24T06:52:04.049Z,40.93
2019-02-24T06:54:32.560Z,40.00
2019-02-24T06:57:01.130Z,34.03
2019-02-24T06:59:29.635Z,40.13
2019-02-24T07:01:58.145Z,49.80
2019-02-24T07:04:26.668Z,48.93
2019-02-24T07:06:55.174Z,52.20
2019-02-24T07:09:23.737Z,100.90
2019-02-24T07:11:52.249Z,66.67
2019-02-24T07:14:20.759Z,59.83
2019-02-24T07:16:49.274Z,94.43
2019-02-24T07:19:17.785Z,280.87
2019-02-24T07:21:46.333Z,57.33
2019-02-24T07:24:14.867Z,52.97
2019-02-24T07:26:43.367Z,67.00
2019-02-24T07:29:12.276Z,91.43
2019-02-24T07:31:40.799Z,42.73
2019-02-24T07:34:11.649Z,62.70
2019-02-24T07:36:40.162Z,79.47
2019-02-24T07:39:08.678Z,127.60
2019-02-24T07:41:37.206Z,60.90
2019-02-24T07:44:05.724Z,106.97
2019-02-24T07:46:34.298Z,162.03
2019-02-24T07:49:02.821Z,107.00
2019-02-24T07:51:31.332Z,97.53
2019-02-24T07:53:59.839Z,87.03
2019-02-24T07:56:28.376Z,41.83
2019-02-24T07:58:56.922Z,35.97
2019-02-24T08:01:25.425Z,47.27
2019-02-24T08:03:54.176Z,57.43
2019-02-24T08:06:22.693Z,62.57
2019-02-24T08:08:51.200Z,95.50
2019-02-24T08:11:19.752Z,63.80
2019-02-24T08:13:48.254Z,47.97
2019-02-24T08:16:16.767Z,93.43
2019-02-24T08:18:49.485Z,146.40
2019-02-24T08:21:15.533Z,110.73
2019-02-24T08:23:44.086Z,124.50
2019-02-24T08:26:12.598Z,42.90
2019-02-24T08:28:41.117Z,113.27
2019-02-24T08:31:09.674Z,90.70
2019-02-24T08:33:38.640Z,64.20
2019-02-24T08:36:07.212Z,52.70
2019-02-24T08:38:37.297Z,91.37
2019-02-24T08:41:06.176Z,59.07
2019-02-24T08:43:34.776Z,47.07
2019-02-24T08:46:03.288Z,78.90
2019-02-24T08:48:31.853Z,34.27
2019-02-24T08:51:00.359Z,51.33
2019-02-24T08:53:28.864Z,71.20
2019-02-24T08:55:57.382Z,31.73
2019-02-24T08:58:25.889Z,31.77
2019-02-24T09:00:54.447Z,38.77
2019-02-24T09:03:22.955Z,25.23
2019-02-24T09:05:51.470Z,53.87
2019-02-24T09:08:19.992Z,58.37
2019-02-24T09:10:48.505Z,41.87
2019-02-24T09:13:17.062Z,31.40
2019-02-24T09:15:45.572Z,33.10
2019-02-24T09:18:14.085Z,44.63
2019-02-24T09:20:42.620Z,63.50
2019-02-24T09:23:11.135Z,46.30
2019-02-24T09:25:39.686Z,57.80
2019-02-24T09:28:08.203Z,14.97
2019-02-24T09:30:36.736Z,32.47
2019-02-24T09:33:05.329Z,24.07
2019-02-24T09:35:33.855Z,60.83
2019-02-24T09:38:02.412Z,57.37
2019-02-24T09:40:30.926Z,32.13
2019-02-24T09:42:59.431Z,32.73
2019-02-24T09:45:27.952Z,30.17
2019-02-24T09:47:56.489Z,33.83
2019-02-24T09:50:25.031Z,46.30
2019-02-24T09:52:53.546Z,31.27
2019-02-24T09:55:22.063Z,42.27
2019-02-24T09:57:50.599Z,22.60
2019-02-24T10:00:19.107Z,80.10
2019-02-24T10:02:47.678Z,40.97
2019-02-24T10:05:16.182Z,66.00
2019-02-24T10:07:44.690Z,39.83
2019-02-24T10:10:13.503Z,52.03
2019-02-24T10:12:42.012Z,33.27
2019-02-24T10:15:13.090Z,19.70
2019-02-24T10:17:41.582Z,20.60
2019-02-24T10:20:11.195Z,18.27
2019-02-24T10:22:39.715Z,21.97
2019-02-24T10:25:09.167Z,31.37
2019-02-24T10:27:37.721Z,36.77
2019-02-24T10:30:11.535Z,16.90
2019-02-24T10:32:40.059Z,37.13
2019-02-24T10:35:08.564Z,14.03
2019-02-24T10:37:37.077Z,8.70
2019-02-24T10:40:08.881Z,9.30
2019-02-24T10:42:37.466Z,14.73
2019-02-24T10:45:09.066Z,17.60
2019-02-24T10:47:37.622Z,9.50
2019-02-24T10:50:09.495Z,9.07
2019-02-24T10:52:38.090Z,11.40
2019-02-24T10:55:06.699Z,42.73
2019-02-24T10:57:35.204Z,10.20
2019-02-24T11:00:05.917Z,7.63
2019-02-24T11:02:34.422Z,11.73
2019-02-24T11:05:02.970Z,218.47
2019-02-24T11:07:31.478Z,48.23
2019-02-24T11:09:59.985Z,44.77
2019-02-24T11:12:28.505Z,22.67
2019-02-24T11:14:57.008Z,33.03
2019-02-24T11:17:25.611Z,19.90
2019-02-24T11:19:54.091Z,12.23
2019-02-24T11:22:22.592Z,17.90
2019-02-24T11:24:51.145Z,9.13
2019-02-24T11:27:19.655Z,46.77
2019-02-24T11:29:48.156Z,17.10
2019-02-24T11:32:16.676Z,12.03
2019-02-24T11:34:45.191Z,77.27
2019-02-24T11:37:13.740Z,22.53
2019-02-24T11:39:42.248Z,11.60
2019-02-24T11:42:10.751Z,11.23
2019-02-24T11:44:39.268Z,14.23
2019-02-24T11:47:07.771Z,12.37
2019-02-24T11:49:36.336Z,10.03
2019-02-24T11:52:04.853Z,17.40
2019-02-24T11:54:33.361Z,13.27
2019-02-24T11:57:01.892Z,16.63
2019-02-24T11:59:30.400Z,18.57
2019-02-24T12:01:58.906Z,24.83
2019-02-24T12:04:27.466Z,11.90
2019-02-24T12:06:55.958Z,12.10
2019-02-24T12:09:24.458Z,17.20
2019-02-24T12:11:53.009Z,19.30
2019-02-24T12:14:21.592Z,19.30
2019-02-24T12:16:50.102Z,10.57
2019-02-24T12:19:18.620Z,29.47
2019-02-24T12:21:47.131Z,12.33
2019-02-24T12:24:15.685Z,22.23
2019-02-24T12:26:44.194Z,47.37
2019-02-24T12:29:12.699Z,15.10
2019-02-24T12:31:41.219Z,11.07
2019-02-24T12:34:09.725Z,13.93
2019-02-24T12:36:38.282Z,12.00
2019-02-24T12:39:06.782Z,8.63
2019-02-24T12:41:35.302Z,25.17
2019-02-24T12:44:03.811Z,14.63
2019-02-24T12:46:32.312Z,26.67
2019-02-24T12:49:00.882Z,17.97
2019-02-24T12:51:29.363Z,17.00
2019-02-24T12:53:57.875Z,20.63
2019-02-24T12:56:26.396Z,19.33
2019-02-24T12:58:54.928Z,46.87
2019-02-24T13:01:23.484Z,18.40
2019-02-24T13:03:51.994Z,19.27
2019-02-24T13:06:20.492Z,13.70
2019-02-24T13:08:49.011Z,20.23
2019-02-24T13:11:17.519Z,16.10
2019-02-24T13:13:46.072Z,11.80
2019-02-24T13:16:14.589Z,47.40
2019-02-24T13:18:43.094Z,20.73
2019-02-24T13:21:11.615Z,54.13
2019-02-24T13:23:40.124Z,29.23
2019-02-24T13:26:08.687Z,22.47
2019-02-24T13:28:37.191Z,34.80
2019-02-24T13:31:05.702Z,36.53
2019-02-24T13:33:34.226Z,19.80
2019-02-24T13:36:02.750Z,44.77
2019-02-24T13:38:31.317Z,68.47
2019-02-24T13:41:01.415Z,36.17
2019-02-24T13:43:29.926Z,133.33
2019-02-24T13:45:58.449Z,65.73
2019-02-24T13:48:26.967Z,156.30
2019-02-24T13:50:55.523Z,40.50
2019-02-24T13:53:24.039Z,49.77
2019-02-24T13:55:52.547Z,15.83
2019-02-24T13:58:21.086Z,41.20
2019-02-24T14:00:49.587Z,25.00
2019-02-24T14:03:18.137Z,12.77
2019-02-24T14:05:46.654Z,29.57
2019-02-24T14:08:15.162Z,26.47
2019-02-24T14:10:43.692Z,16.80
2019-02-24T14:13:12.192Z,23.37
2019-02-24T14:15:40.753Z,17.93
2019-02-24T14:18:09.254Z,12.83
2019-02-24T14:20:37.775Z,20.27
2019-02-24T14:23:06.300Z,89.80
2019-02-24T14:25:34.814Z,96.93
2019-02-24T14:28:03.381Z,35.70
2019-02-24T14:30:31.884Z,28.77
2019-02-24T14:33:00.391Z,24.50
2019-02-24T14:35:28.952Z,30.83
2019-02-24T14:37:57.461Z,48.40
2019-02-24T14:40:26.044Z,32.07
2019-02-24T14:42:54.582Z,21.23
2019-02-24T14:45:24.760Z,263.00
2019-02-24T14:47:53.345Z,642.50
2019-02-24T14:50:22.426Z,124.97
2019-02-24T14:52:50.983Z,230.80
2019-02-24T14:55:19.520Z,391.13
2019-02-24T14:57:48.040Z,479.43
2019-02-24T15:00:18.821Z,319.23
2019-02-24T15:02:47.351Z,520.87
2019-02-24T15:05:16.810Z,178.10
2019-02-24T15:07:45.607Z,163.77
2019-02-24T15:10:19.916Z,240.07
2019-02-24T15:12:48.432Z,195.00
2019-02-24T15:15:22.351Z,95.40
2019-02-24T15:17:50.863Z,185.57
2019-02-24T15:20:20.470Z,284.17
2019-02-24T15:22:49.001Z,122.97
2019-02-24T15:25:19.076Z,105.83
2019-02-24T15:27:47.651Z,143.20
2019-02-24T15:30:28.024Z,216.80
2019-02-24T15:32:56.614Z,136.10
2019-02-24T15:35:25.222Z,215.37
2019-02-24T15:37:53.720Z,92.93
2019-02-24T15:40:22.233Z,45.80
2019-02-24T15:42:50.751Z,142.73
2019-02-24T15:45:19.312Z,163.37
2019-02-24T15:47:47.837Z,125.90
2019-02-24T15:50:16.361Z,146.10
2019-02-24T15:52:44.896Z,147.90
2019-02-24T15:55:15.566Z,135.53
2019-02-24T15:57:44.082Z,185.13
2019-02-24T16:00:19.773Z,225.80
2019-02-24T16:02:48.291Z,233.30
2019-02-24T16:05:16.859Z,85.17
2019-02-24T16:07:45.369Z,39.67
2019-02-24T16:10:16.553Z,136.60
2019-02-24T16:12:45.110Z,179.60
2019-02-24T16:15:15.523Z,70.27
2019-02-24T16:17:44.040Z,241.13
2019-02-24T16:20:17.775Z,143.63
2019-02-24T16:22:46.288Z,198.23
2019-02-24T16:25:14.874Z,209.00
2019-02-24T16:27:43.397Z,168.57
2019-02-24T16:30:16.270Z,300.67
2019-02-24T16:32:44.834Z,194.50
2019-02-24T16:35:15.063Z,217.27
2019-02-24T16:37:43.577Z,214.43
2019-02-24T16:40:23.490Z,165.60
2019-02-24T16:42:53.558Z,117.33
2019-02-24T16:45:22.135Z,179.47
2019-02-24T16:47:50.655Z,162.37
2019-02-24T16:50:21.236Z,159.03
2019-02-24T16:52:49.770Z,143.57
2019-02-24T16:55:18.599Z,268.50
2019-02-24T16:57:48.102Z,175.40
2019-02-24T17:00:23.263Z,100.80
2019-02-24T17:02:51.780Z,190.47
2019-02-24T17:05:20.336Z,88.63
2019-02-24T17:07:49.377Z,69.13
2019-02-24T17:10:23.907Z,48.13
2019-02-24T17:12:52.434Z,47.13
2019-02-24T17:15:20.942Z,34.83
2019-02-24T17:17:49.498Z,48.30
2019-02-24T17:20:22.623Z,50.70
2019-02-24T17:22:51.130Z,37.33
2019-02-24T17:25:19.696Z,33.70
2019-02-24T17:27:48.200Z,50.80
2019-02-24T17:30:16.806Z,40.60
2019-02-24T17:32:45.332Z,41.00
2019-02-24T17:35:13.840Z,31.33
2019-02-24T17:37:42.410Z,38.43
2019-02-24T17:40:16.044Z,31.77
2019-02-24T17:42:44.560Z,44.07
2019-02-24T17:45:14.005Z,57.63
2019-02-24T17:47:42.526Z,65.33
2019-02-24T17:50:12.630Z,47.47
2019-02-24T17:52:41.273Z,53.50
2019-02-24T17:55:14.484Z,47.37
2019-02-24T17:57:43.023Z,47.57
2019-02-24T18:00:14.427Z,29.73
2019-02-24T18:02:42.939Z,44.23
2019-02-24T18:05:12.958Z,43.53
2019-02-24T18:07:41.471Z,35.27
2019-02-24T18:10:10.017Z,20.87
2019-02-24T18:12:38.536Z,15.60
2019-02-24T18:15:10.048Z,16.00
2019-02-24T18:17:38.576Z,18.40
2019-02-24T18:20:09.776Z,15.07
2019-02-24T18:22:38.405Z,23.60
2019-02-24T18:25:10.711Z,223.13
2019-02-24T18:27:39.235Z,288.87
2019-02-24T18:30:10.882Z,97.03
2019-02-24T18:32:39.407Z,188.20
2019-02-24T18:35:07.955Z,51.77
2019-02-24T18:37:36.476Z,58.50
2019-02-24T18:40:07.679Z,55.43
2019-02-24T18:42:36.221Z,292.80
2019-02-24T18:45:05.643Z,400.10
2019-02-24T18:47:34.232Z,85.50
2019-02-24T18:50:03.142Z,123.23
2019-02-24T18:52:31.668Z,51.40
2019-02-24T18:55:00.294Z,208.60
2019-02-24T18:57:28.804Z,125.87
2019-02-24T18:59:58.887Z,148.97
2019-02-24T19:02:27.415Z,134.77
2019-02-24T19:04:55.932Z,43.37
2019-02-24T19:07:24.457Z,221.50
2019-02-24T19:09:52.980Z,128.30
2019-02-24T19:12:21.564Z,83.47
2019-02-24T19:14:50.102Z,55.53
2019-02-24T19:17:18.602Z,68.77
2019-02-24T19:19:47.173Z,43.57
2019-02-24T19:22:15.700Z,64.83
2019-02-24T19:24:44.210Z,42.13
2019-02-24T19:27:12.780Z,35.67
2019-02-24T19:29:41.298Z,81.00
2019-02-24T19:32:09.817Z,67.63
2019-02-24T19:34:38.778Z,57.50
2019-02-24T19:37:07.299Z,44.73
2019-02-24T19:39:35.886Z,56.97
2019-02-24T19:42:04.406Z,55.70
2019-02-24T19:44:32.926Z,48.77
2019-02-24T19:47:01.522Z,41.23
2019-02-24T19:49:30.072Z,43.40
2019-02-24T19:51:58.652Z,45.80
2019-02-24T19:54:27.172Z,46.73
2019-02-24T19:56:55.681Z,60.83
2019-02-24T19:59:24.218Z,112.50
2019-02-24T20:01:52.738Z,88.87
2019-02-24T20:04:21.312Z,99.17
2019-02-24T20:06:49.836Z,69.57
2019-02-24T20:09:18.373Z,90.80
2019-02-24T20:11:46.910Z,97.23
2019-02-24T20:14:15.421Z,175.03
2019-02-24T20:16:44.029Z,91.67
2019-02-24T20:19:12.542Z,94.10
2019-02-24T20:21:41.099Z,83.77
2019-02-24T20:24:09.725Z,76.47
2019-02-24T20:26:38.248Z,71.63
2019-02-24T20:29:06.817Z,49.93
2019-02-24T20:31:35.332Z,55.40
2019-02-24T20:34:03.847Z,60.53
2019-02-24T20:36:32.365Z,72.10
2019-02-24T20:39:00.876Z,62.67
2019-02-24T20:41:29.467Z,50.20
2019-02-24T20:43:57.989Z,47.93
2019-02-24T20:46:26.512Z,48.27
2019-02-24T20:48:55.087Z,51.03
2019-02-24T20:51:23.604Z,49.80
2019-02-24T20:53:52.138Z,44.80
2019-02-24T20:56:21.087Z,32.80
2019-02-24T20:58:49.613Z,37.87
2019-02-24T21:01:18.185Z,56.37
2019-02-24T21:03:46.698Z,78.07
2019-02-24T21:06:15.218Z,105.60
2019-02-24T21:08:43.794Z,109.93
2019-02-24T21:11:12.312Z,87.63
2019-02-24T21:13:40.822Z,72.73
2019-02-24T21:16:09.414Z,77.63
2019-02-24T21:18:37.940Z,53.13
2019-02-24T21:21:06.458Z,32.63
2019-02-24T21:23:35.019Z,20.77
2019-02-24T21:26:03.528Z,20.67
2019-02-24T21:28:32.038Z,21.33
2019-02-24T21:31:00.613Z,17.60
2019-02-24T21:33:29.127Z,17.93
2019-02-24T21:35:57.638Z,24.53
2019-02-24T21:38:26.168Z,20.97
2019-02-24T21:40:54.670Z,42.83
2019-02-24T21:43:23.242Z,30.27
2019-02-24T21:45:51.756Z,21.67
2019-02-24T21:48:20.266Z,21.70
2019-02-24T21:50:48.779Z,25.73
2019-02-24T21:53:17.301Z,35.87
2019-02-24T21:55:45.866Z,38.43
2019-02-24T21:58:14.378Z,48.70
2019-02-24T22:00:42.889Z,47.40
2019-02-24T22:03:11.406Z,58.77
2019-02-24T22:05:39.925Z,51.30
2019-02-24T22:08:08.490Z,32.10
2019-02-24T22:10:37.003Z,29.80
2019-02-24T22:13:05.520Z,82.20
2019-02-24T22:15:34.037Z,53.50
2019-02-24T22:18:02.553Z,59.77
2019-02-24T22:20:31.113Z,39.53
2019-02-24T22:22:59.628Z,27.77
2019-02-24T22:25:28.137Z,28.17
2019-02-24T22:27:56.657Z,28.23
2019-02-24T22:30:25.169Z,31.17
2019-02-24T22:32:53.724Z,31.53
2019-02-24T22:35:22.235Z,34.10
2019-02-24T22:37:50.750Z,37.07
2019-02-24T22:40:19.268Z,39.07
2019-02-24T22:42:47.784Z,40.37
2019-02-24T22:45:20.073Z,40.43
2019-02-24T22:47:48.585Z,42.10
2019-02-24T22:50:17.099Z,42.67
2019-02-24T22:52:46.186Z,38.10
2019-02-24T22:55:18.887Z,44.97
2019-02-24T22:57:47.395Z,40.13
2019-02-24T23:00:53.664Z,40.30
2019-02-24T23:03:24.323Z,40.63
2019-02-24T23:05:52.838Z,36.20
2019-02-24T23:08:21.344Z,38.60
2019-02-24T23:10:49.867Z,40.90
2019-02-24T23:13:18.423Z,36.73
2019-02-24T23:15:47.017Z,30.50
2019-02-24T23:18:15.536Z,36.40
2019-02-24T23:20:44.048Z,33.57
2019-02-24T23:23:12.563Z,34.27
2019-02-24T23:25:41.070Z,33.00
2019-02-24T23:28:09.640Z,35.10
2019-02-24T23:30:38.144Z,36.73
2019-02-24T23:33:06.656Z,39.27
2019-02-24T23:35:35.176Z,34.60
2019-02-24T23:38:03.684Z,38.30
2019-02-24T23:40:32.235Z,41.17
2019-02-24T23:43:00.748Z,42.07
2019-02-24T23:45:29.257Z,43.50
2019-02-24T23:47:57.779Z,42.03
2019-02-24T23:50:26.290Z,39.03
2019-02-24T23:52:54.841Z,42.23
2019-02-24T23:55:23.347Z,39.70
2019-02-24T23:57:51.861Z,43.53
